createdAt,value
2024-03-02T00:00:33.611Z,99783.03
2024-03-02T00:03:04.067Z,99789.34
2024-03-02T00:05:34.144Z,99791.59
2024-03-02T00:08:07.879Z,99795.44
2024-03-02T00:10:49.230Z,99788.78
2024-03-02T00:13:24.124Z,99786.38
2024-03-02T00:15:59.990Z,99788.28
2024-03-02T00:18:34.283Z,99779.81
2024-03-02T00:21:04.718Z,99770.91
2024-03-02T00:23:36.361Z,99761.22
2024-03-02T00:26:07.750Z,99762.00
2024-03-02T00:28:40.213Z,99751.97
2024-03-02T00:31:15.388Z,99758.84
2024-03-02T00:33:47.042Z,99753.09
2024-03-02T00:36:20.968Z,99756.47
2024-03-02T00:38:55.021Z,99750.38
2024-03-02T00:41:27.145Z,99753.09
2024-03-02T00:44:05.079Z,99753.56
2024-03-02T00:46:42.274Z,99749.06
2024-03-02T00:49:21.620Z,99749.84
2024-03-02T00:51:55.994Z,99751.91
2024-03-02T00:54:30.243Z,99759.25
2024-03-02T00:57:03.815Z,99755.41
2024-03-02T00:59:33.891Z,99759.50
2024-03-02T01:02:06.622Z,99754.09
2024-03-02T01:04:36.634Z,99747.06
2024-03-02T01:07:06.494Z,99751.50
2024-03-02T01:09:36.671Z,99751.66
2024-03-02T01:12:07.188Z,99758.31
2024-03-02T01:14:37.127Z,99755.59
2024-03-02T01:17:10.059Z,99762.75
2024-03-02T01:19:42.267Z,99745.38
2024-03-02T01:22:27.416Z,99748.19
2024-03-02T01:24:57.869Z,99747.84
2024-03-02T01:27:31.308Z,99740.41
2024-03-02T01:30:01.505Z,99747.19
2024-03-02T01:32:34.106Z,99752.63
2024-03-02T01:35:09.177Z,99748.63
2024-03-02T01:37:39.016Z,99747.84
2024-03-02T01:40:10.635Z,99742.91
2024-03-02T01:42:41.058Z,99744.50
2024-03-02T01:45:14.648Z,99742.91
2024-03-02T01:47:47.482Z,99743.38
2024-03-02T01:50:24.776Z,99741.09
2024-03-02T01:52:55.165Z,99742.69
2024-03-02T01:55:32.124Z,99744.94
2024-03-02T01:58:02.500Z,99742.22
2024-03-02T02:00:35.850Z,99744.94
2024-03-02T02:03:08.924Z,99733.66
2024-03-02T02:05:47.286Z,99740.66
2024-03-02T02:08:17.780Z,99747.19
2024-03-02T02:10:48.076Z,99741.34
2024-03-02T02:13:18.347Z,99739.88
2024-03-02T02:15:51.740Z,99747.19
2024-03-02T02:18:24.604Z,99739.53
2024-03-02T02:21:01.051Z,99739.53
2024-03-02T02:23:33.672Z,99745.88
2024-03-02T02:26:06.320Z,99742.81
2024-03-02T02:28:38.276Z,99742.47
2024-03-02T02:31:17.178Z,99742.94
2024-03-02T02:33:48.454Z,99741.84
2024-03-02T02:36:18.402Z,99740.03
2024-03-02T02:38:54.697Z,99739.38
2024-03-02T02:41:28.057Z,99746.81
2024-03-02T02:43:57.992Z,99741.06
2024-03-02T02:46:28.092Z,99746.47
2024-03-02T02:48:58.064Z,99747.28
2024-03-02T02:51:28.840Z,99743.44
2024-03-02T02:54:01.290Z,99742.78
2024-03-02T02:56:31.289Z,99741.19
2024-03-02T02:59:04.621Z,99735.00
2024-03-02T03:01:35.958Z,99735.78
2024-03-02T03:04:06.336Z,99737.34
2024-03-02T03:06:40.353Z,99731.94
2024-03-02T03:09:15.410Z,99733.53
2024-03-02T03:11:45.485Z,99739.72
2024-03-02T03:14:15.435Z,99739.38
2024-03-02T03:16:47.422Z,99738.25
2024-03-02T03:19:17.337Z,99740.97
2024-03-02T03:21:50.478Z,99743.03
2024-03-02T03:24:23.090Z,99739.97
2024-03-02T03:26:53.109Z,99728.16
2024-03-02T03:29:22.983Z,99747.59
2024-03-02T03:31:53.312Z,99745.66
2024-03-02T03:34:23.158Z,99758.44
2024-03-02T03:36:56.141Z,99760.81
2024-03-02T03:39:30.486Z,99761.16
2024-03-02T03:42:00.396Z,99755.72
2024-03-02T03:44:30.344Z,99752.56
2024-03-02T03:47:03.444Z,99767.69
2024-03-02T03:49:35.202Z,99769.13
2024-03-02T03:52:08.650Z,99771.03
2024-03-02T03:54:44.477Z,99767.88
2024-03-02T03:57:14.591Z,99766.28
2024-03-02T03:59:44.484Z,99763.59
2024-03-02T04:02:14.305Z,99765.38
2024-03-02T04:04:46.644Z,99755.31
2024-03-02T04:07:17.096Z,99766.16
2024-03-02T04:09:49.650Z,99765.38
2024-03-02T04:12:23.551Z,99772.41
2024-03-02T04:15:03.264Z,99763.00
2024-03-02T04:17:38.436Z,99771.00
2024-03-02T04:20:16.424Z,99770.53
2024-03-02T04:22:49.362Z,99768.06
2024-03-02T04:25:26.624Z,99764.41
2024-03-02T04:28:00.595Z,99765.22
2024-03-02T04:30:33.236Z,99764.41
2024-03-02T04:33:03.850Z,99768.25
2024-03-02T04:35:33.828Z,99764.31
2024-03-02T04:38:14.794Z,99763.72
2024-03-02T04:40:47.326Z,99767.06
2024-03-02T04:43:18.273Z,99774.41
2024-03-02T04:45:48.321Z,99779.81
2024-03-02T04:48:24.396Z,99775.19
2024-03-02T04:50:54.489Z,99777.91
2024-03-02T04:53:24.786Z,99780.63
2024-03-02T04:56:24.825Z,99786.81
2024-03-02T04:58:55.100Z,99789.88
2024-03-02T05:01:25.117Z,99782.41
2024-03-02T05:03:55.137Z,99776.06
2024-03-02T05:06:25.167Z,99778.31
2024-03-02T05:08:54.957Z,99781.22
2024-03-02T05:11:51.765Z,99782.09
2024-03-02T05:14:21.692Z,99789.03
2024-03-02T05:16:51.704Z,99786.97
2024-03-02T05:19:21.881Z,99791.47
2024-03-02T05:21:53.184Z,99789.06
2024-03-02T05:24:23.469Z,99790.53
2024-03-02T05:27:02.882Z,99797.94
2024-03-02T05:29:38.381Z,99794.63
2024-03-02T05:32:08.785Z,99796.72
2024-03-02T05:34:47.973Z,99804.22
2024-03-02T05:37:18.241Z,99805.00
2024-03-02T05:39:48.563Z,99800.09
2024-03-02T05:42:21.341Z,99811.22
2024-03-02T05:44:54.578Z,99807.72
2024-03-02T05:47:24.798Z,99800.25
2024-03-02T05:49:55.699Z,99798.22
2024-03-02T05:52:33.321Z,99796.16
2024-03-02T05:55:03.629Z,99803.34
2024-03-02T05:57:48.974Z,99797.44
2024-03-02T06:00:23.531Z,99814.47
2024-03-02T06:02:54.044Z,99806.22
2024-03-02T06:05:30.362Z,99817.06
2024-03-02T06:08:00.577Z,99820.38
2024-03-02T06:10:30.532Z,99813.72
2024-03-02T06:13:06.298Z,99816.31
2024-03-02T06:15:39.032Z,99812.31
2024-03-02T06:18:14.134Z,99822.50
2024-03-02T06:20:46.810Z,99829.50
2024-03-02T06:23:17.254Z,99830.41
2024-03-02T06:25:47.255Z,99830.41
2024-03-02T06:28:21.692Z,99829.84
2024-03-02T06:30:51.562Z,99825.50
2024-03-02T06:33:21.612Z,99824.72
2024-03-02T06:36:09.819Z,99838.28
2024-03-02T06:38:43.313Z,99836.03
2024-03-02T06:41:13.719Z,99824.31
2024-03-02T06:43:46.210Z,99840.84
2024-03-02T06:46:16.436Z,99844.34
2024-03-02T06:48:46.393Z,99847.06
2024-03-02T06:51:17.256Z,99856.28
2024-03-02T06:53:47.644Z,99862.16
2024-03-02T06:56:17.500Z,99861.69
2024-03-02T06:58:49.935Z,99860.09
2024-03-02T07:01:23.819Z,99852.94
2024-03-02T07:03:55.052Z,99848.59
2024-03-02T07:06:24.976Z,99847.44
2024-03-02T07:08:54.876Z,99851.56
2024-03-02T07:11:24.796Z,99859.06
2024-03-02T07:13:57.447Z,99857.25
2024-03-02T07:16:29.385Z,99869.66
2024-03-02T07:19:00.389Z,99869.03
2024-03-02T07:21:30.359Z,99875.72
2024-03-02T07:24:00.657Z,99875.38
2024-03-02T07:29:06.984Z,99892.41
2024-03-02T07:31:36.864Z,99887.47
2024-03-02T07:34:07.018Z,99886.03
2024-03-02T07:36:38.051Z,99902.88
2024-03-02T07:39:08.831Z,99894.09
2024-03-02T07:41:38.775Z,99887.25
2024-03-02T07:44:12.583Z,99885.47
2024-03-02T07:46:42.513Z,99886.56
2024-03-02T07:49:12.650Z,99879.66
2024-03-02T07:51:42.571Z,99882.41
2024-03-02T07:54:12.438Z,99892.47
2024-03-02T07:56:42.440Z,99892.56
2024-03-02T07:59:14.958Z,99898.94
2024-03-02T08:01:44.858Z,99895.31
2024-03-02T08:04:15.522Z,99897.72
2024-03-02T08:06:45.389Z,99908.88
2024-03-02T08:09:15.268Z,99912.56
2024-03-02T08:11:45.177Z,99926.91
2024-03-02T08:14:17.730Z,99921.59
2024-03-02T08:16:47.645Z,99932.03
2024-03-02T08:19:17.617Z,99924.03
2024-03-02T08:21:48.215Z,99924.38
2024-03-02T08:24:18.206Z,99921.97
2024-03-02T08:26:48.202Z,99914.63
2024-03-02T08:29:20.809Z,99915.28
2024-03-02T08:31:50.791Z,99910.09
2024-03-02T08:34:20.842Z,99915.53
2024-03-02T08:36:50.977Z,99917.09
2024-03-02T08:39:22.031Z,99917.09
2024-03-02T08:41:52.751Z,99918.81
2024-03-02T08:44:25.993Z,99901.00
2024-03-02T08:46:55.820Z,99904.66
2024-03-02T08:49:25.709Z,99902.84
2024-03-02T08:51:56.567Z,99902.16
2024-03-02T08:54:26.785Z,99899.88
2024-03-02T08:56:56.940Z,99903.88
2024-03-02T08:59:29.480Z,99908.84
2024-03-02T09:01:59.379Z,99915.53
2024-03-02T09:04:31.650Z,99911.69
2024-03-02T09:07:03.776Z,99919.13
2024-03-02T09:09:33.898Z,99923.91
2024-03-02T09:12:03.819Z,99914.97
2024-03-02T09:14:36.498Z,99921.97
2024-03-02T09:17:06.811Z,99922.75
2024-03-02T09:19:36.682Z,99915.84
2024-03-02T09:22:07.133Z,99930.78
2024-03-02T09:24:37.196Z,99924.56
2024-03-02T09:27:07.593Z,99922.84
2024-03-02T09:29:42.648Z,99916.16
2024-03-02T09:32:16.887Z,99913.19
2024-03-02T09:34:49.500Z,99918.81
2024-03-02T09:37:20.582Z,99928.09
2024-03-02T09:39:50.473Z,99925.13
2024-03-02T09:42:21.556Z,99922.34
2024-03-02T09:44:56.079Z,99916.78
2024-03-02T09:47:25.988Z,99916.16
2024-03-02T09:49:56.910Z,99917.41
2024-03-02T09:52:26.908Z,99921.88
2024-03-02T09:54:56.846Z,99903.38
2024-03-02T09:57:26.755Z,99917.53
2024-03-02T09:59:59.201Z,99915.84
2024-03-02T10:02:29.081Z,99917.94
2024-03-02T10:04:58.974Z,99918.44
2024-03-02T10:07:28.796Z,99908.78
2024-03-02T10:09:58.732Z,99904.66
2024-03-02T10:12:29.134Z,99907.25
2024-03-02T10:15:08.958Z,99904.59
2024-03-02T10:17:39.706Z,99903.41
2024-03-02T10:20:30.340Z,99906.81
2024-03-02T10:23:13.459Z,99901.00
2024-03-02T10:25:51.401Z,99912.44
2024-03-02T10:28:29.598Z,99901.94
2024-03-02T10:31:02.904Z,99902.97
2024-03-02T10:33:32.982Z,99906.22
2024-03-02T10:36:02.888Z,99902.25
2024-03-02T10:38:32.708Z,99902.09
2024-03-02T10:41:05.090Z,99907.34
2024-03-02T10:43:35.524Z,99907.00
2024-03-02T10:46:08.059Z,99901.06
2024-03-02T10:48:40.931Z,99906.00
2024-03-02T10:51:10.907Z,99893.53
2024-03-02T10:53:40.739Z,99895.19
2024-03-02T10:56:16.738Z,99892.47
2024-03-02T10:58:46.821Z,99886.69
2024-03-02T11:01:19.501Z,99892.09
2024-03-02T11:03:49.617Z,99892.16
2024-03-02T11:06:20.126Z,99881.34
2024-03-02T11:08:53.152Z,99882.22
2024-03-02T11:11:30.498Z,99876.13
2024-03-02T11:14:09.547Z,99874.63
2024-03-02T11:16:43.058Z,99871.66
2024-03-02T11:19:17.808Z,99867.13
2024-03-02T11:21:48.747Z,99866.53
2024-03-02T11:24:42.381Z,99863.69
2024-03-02T11:27:14.063Z,99859.47
2024-03-02T11:29:47.758Z,99871.69
2024-03-02T11:32:22.223Z,99867.34
2024-03-02T11:34:53.801Z,99865.78
2024-03-02T11:37:24.634Z,99861.16
2024-03-02T11:39:55.833Z,99860.41
2024-03-02T11:42:25.782Z,99858.94
2024-03-02T11:44:56.131Z,99860.97
2024-03-02T11:47:38.794Z,99859.94
2024-03-02T11:50:10.942Z,99862.38
2024-03-02T11:52:42.180Z,99864.84
2024-03-02T11:55:13.956Z,99856.69
2024-03-02T11:57:43.996Z,99856.69
2024-03-02T12:00:21.864Z,99845.00
2024-03-02T12:03:04.362Z,99854.75
2024-03-02T12:05:34.909Z,99844.44
2024-03-02T12:08:06.296Z,99842.97
2024-03-02T12:10:36.774Z,99830.94
2024-03-02T12:13:08.962Z,99822.31
2024-03-02T12:15:42.343Z,99829.88
2024-03-02T12:18:14.844Z,99827.00
2024-03-02T12:20:44.625Z,99818.75
2024-03-02T12:23:15.249Z,99821.16
2024-03-02T12:25:46.286Z,99824.31
2024-03-02T12:28:16.355Z,99818.84
2024-03-02T12:30:46.496Z,99813.34
2024-03-02T12:33:19.121Z,99813.28
2024-03-02T12:35:48.957Z,99806.31
2024-03-02T12:38:19.058Z,99800.84
2024-03-02T12:40:48.927Z,99799.25
2024-03-02T12:43:18.804Z,99797.16
2024-03-02T12:45:48.810Z,99791.66
2024-03-02T12:48:21.367Z,99791.19
2024-03-02T12:50:51.669Z,99781.81
2024-03-02T12:53:21.591Z,99782.59
2024-03-02T12:55:53.062Z,99780.19
2024-03-02T12:58:23.388Z,99779.47
2024-03-02T13:00:53.511Z,99785.72
2024-03-02T13:03:26.383Z,99771.25
2024-03-02T13:05:56.357Z,99784.09
2024-03-02T13:08:26.276Z,99772.69
2024-03-02T13:10:56.301Z,99773.78
2024-03-02T13:13:26.948Z,99791.69
2024-03-02T13:15:59.834Z,99783.88
2024-03-02T13:18:33.165Z,99767.09
2024-03-02T13:21:03.086Z,99754.94
2024-03-02T13:23:33.124Z,99765.47
2024-03-02T13:26:03.374Z,99760.41
2024-03-02T13:28:33.866Z,99771.34
2024-03-02T13:31:03.907Z,99772.09
2024-03-02T13:33:36.533Z,99774.09
2024-03-02T13:36:07.292Z,99773.28
2024-03-02T13:38:37.617Z,99768.94
2024-03-02T13:41:07.797Z,99767.47
2024-03-02T13:43:39.872Z,99772.53
2024-03-02T13:46:11.238Z,99769.03
2024-03-02T13:48:43.807Z,99755.81
2024-03-02T13:51:13.609Z,99759.34
2024-03-02T13:53:43.441Z,99755.03
2024-03-02T13:56:13.446Z,99759.78
2024-03-02T13:58:43.401Z,99751.28
2024-03-02T14:01:13.569Z,99755.16
2024-03-02T14:03:47.461Z,99752.00
2024-03-02T14:06:17.778Z,99746.53
2024-03-02T14:08:49.549Z,99752.00
2024-03-02T14:11:19.444Z,99743.38
2024-03-02T14:13:55.047Z,99743.00
2024-03-02T14:16:27.241Z,99742.53
2024-03-02T14:19:00.710Z,99737.06
2024-03-02T14:21:30.612Z,99730.44
2024-03-02T14:24:00.583Z,99728.56
2024-03-02T14:26:30.505Z,99720.75
2024-03-02T14:29:00.453Z,99721.63
2024-03-02T14:31:30.420Z,99716.06
2024-03-02T14:34:04.369Z,99722.03
2024-03-02T14:36:35.317Z,99719.72
2024-03-02T14:39:05.498Z,99719.78
2024-03-02T14:41:35.308Z,99720.97
2024-03-02T14:44:05.184Z,99717.91
2024-03-02T14:46:35.286Z,99721.13
2024-03-02T14:49:22.181Z,99719.56
2024-03-02T14:51:52.067Z,99722.69
2024-03-02T14:54:22.002Z,99712.50
2024-03-02T14:56:53.032Z,99710.03
2024-03-02T14:59:23.139Z,99709.16
2024-03-02T15:01:53.112Z,99703.78
2024-03-02T15:04:26.125Z,99710.03
2024-03-02T15:06:56.006Z,99706.19
2024-03-02T15:09:25.883Z,99699.19
2024-03-02T15:11:55.794Z,99699.22
2024-03-02T15:14:25.869Z,99702.41
2024-03-02T15:16:57.536Z,99700.09
2024-03-02T15:19:30.031Z,99696.31
2024-03-02T15:21:59.962Z,99697.50
2024-03-02T15:24:29.815Z,99694.78
2024-03-02T15:26:59.701Z,99688.94
2024-03-02T15:29:30.814Z,99681.09
2024-03-02T15:32:00.867Z,99689.22
2024-03-02T15:34:33.461Z,99686.03
2024-03-02T15:37:05.384Z,99675.78
2024-03-02T15:39:35.809Z,99682.75
2024-03-02T15:42:06.377Z,99681.50
2024-03-02T15:44:36.262Z,99687.34
2024-03-02T15:47:06.486Z,99689.69
2024-03-02T15:49:38.900Z,99688.81
2024-03-02T15:52:08.847Z,99687.22
2024-03-02T15:54:38.804Z,99691.84
2024-03-02T15:57:08.796Z,99696.59
2024-03-02T15:59:38.674Z,99686.38
2024-03-02T16:02:09.058Z,99691.84
2024-03-02T16:04:41.973Z,99691.84
2024-03-02T16:07:12.600Z,99698.03
2024-03-02T16:09:42.582Z,99689.41
2024-03-02T16:12:12.590Z,99693.28
2024-03-02T16:14:42.519Z,99684.66
2024-03-02T16:17:12.450Z,99691.25
2024-03-02T16:19:45.112Z,99688.53
2024-03-02T16:22:15.161Z,99689.63
2024-03-02T16:24:45.012Z,99684.94
2024-03-02T16:27:14.906Z,99680.56
2024-03-02T16:29:45.091Z,99676.66
2024-03-02T16:32:15.012Z,99682.13
2024-03-02T16:34:47.613Z,99682.91
2024-03-02T16:37:17.527Z,99679.00
2024-03-02T16:39:47.947Z,99680.56
2024-03-02T16:42:21.229Z,99682.88
2024-03-02T16:44:54.606Z,99682.41
2024-03-02T16:47:24.881Z,99687.50
2024-03-02T16:50:00.066Z,99682.03
2024-03-02T16:52:31.784Z,99690.25
2024-03-02T16:55:04.480Z,99688.66
2024-03-02T16:57:35.236Z,99692.13
2024-03-02T17:00:05.179Z,99691.31
2024-03-02T17:02:35.147Z,99692.81
2024-03-02T17:05:08.468Z,99695.13
2024-03-02T17:07:38.436Z,99695.91
2024-03-02T17:10:09.426Z,99705.28
2024-03-02T17:12:41.418Z,99699.81
2024-03-02T17:15:12.060Z,99704.56
2024-03-02T17:17:42.077Z,99702.16
2024-03-02T17:20:16.247Z,99712.31
2024-03-02T17:22:46.122Z,99719.34
2024-03-02T17:25:16.139Z,99710.81
2024-03-02T17:27:46.296Z,99707.69
2024-03-02T17:30:17.733Z,99718.63
2024-03-02T17:32:47.545Z,99724.81
2024-03-02T17:35:20.120Z,99728.72
2024-03-02T17:37:52.277Z,99730.66
2024-03-02T17:40:22.186Z,99732.19
2024-03-02T17:42:52.065Z,99733.34
2024-03-02T17:45:21.909Z,99728.59
2024-03-02T17:47:51.792Z,99735.63
2024-03-02T17:50:24.301Z,99737.25
2024-03-02T17:52:56.299Z,99729.84
2024-03-02T17:55:26.116Z,99740.31
2024-03-02T17:57:56.019Z,99742.63
2024-03-02T18:00:26.323Z,99748.88
2024-03-02T18:02:56.228Z,99740.31
2024-03-02T18:05:28.697Z,99749.31
2024-03-02T18:07:58.580Z,99755.50
2024-03-02T18:10:30.283Z,99748.88
2024-03-02T18:13:00.299Z,99753.53
2024-03-02T18:15:30.140Z,99753.53
2024-03-02T18:18:01.157Z,99743.72
2024-03-02T18:20:34.652Z,99746.00
2024-03-02T18:23:04.614Z,99750.22
2024-03-02T18:25:34.531Z,99754.09
2024-03-02T18:28:04.443Z,99753.19
2024-03-02T18:30:34.305Z,99746.88
2024-03-02T18:33:05.321Z,99756.22
2024-03-02T18:35:37.847Z,99749.13
2024-03-02T18:38:08.231Z,99742.84
2024-03-02T18:40:38.147Z,99749.06
2024-03-02T18:43:08.346Z,99743.63
2024-03-02T18:45:38.683Z,99744.34
2024-03-02T18:48:09.476Z,99741.97
2024-03-02T18:50:42.057Z,99750.53
2024-03-02T18:53:13.799Z,99745.78
2024-03-02T18:55:44.080Z,99744.22
2024-03-02T18:58:13.996Z,99745.00
2024-03-02T19:00:44.178Z,99746.53
2024-03-02T19:03:14.383Z,99749.63
2024-03-02T19:05:46.861Z,99744.88
2024-03-02T19:08:19.740Z,99747.53
2024-03-02T19:10:49.631Z,99749.41
2024-03-02T19:13:19.580Z,99742.78
2024-03-02T19:15:49.680Z,99754.84
2024-03-02T19:18:19.700Z,99752.50
2024-03-02T19:20:54.680Z,99746.25
2024-03-02T19:23:29.124Z,99742.31
2024-03-02T19:26:02.585Z,99746.19
2024-03-02T19:28:32.476Z,99739.94
2024-03-02T19:31:03.319Z,99747.34
2024-03-02T19:33:33.217Z,99740.66
2024-03-02T19:36:06.685Z,99744.56
2024-03-02T19:38:37.982Z,99742.97
2024-03-02T19:41:08.100Z,99736.28
2024-03-02T19:43:37.944Z,99733.56
2024-03-02T19:46:08.177Z,99731.19
2024-03-02T19:48:38.086Z,99732.28
2024-03-02T19:51:10.893Z,99729.56
2024-03-02T19:53:40.731Z,99714.72
2024-03-02T19:56:10.910Z,99711.56
2024-03-02T19:58:40.820Z,99717.03
2024-03-02T20:01:10.748Z,99713.88
2024-03-02T20:03:40.685Z,99715.75
2024-03-02T20:06:13.853Z,99712.22
2024-03-02T20:08:43.767Z,99708.28
2024-03-02T20:11:13.686Z,99711.00
2024-03-02T20:13:43.567Z,99710.19
2024-03-02T20:16:13.717Z,99707.56
2024-03-02T20:18:43.631Z,99703.66
2024-03-02T20:21:16.100Z,99700.22
2024-03-02T20:23:46.372Z,99690.44
2024-03-02T20:26:17.613Z,99695.13
2024-03-02T20:28:48.812Z,99692.84
2024-03-02T20:31:18.805Z,99696.75
2024-03-02T20:33:48.721Z,99694.41
2024-03-02T20:36:21.212Z,99695.19
2024-03-02T20:38:51.150Z,99694.47
2024-03-02T20:41:22.979Z,99685.84
2024-03-02T20:43:52.824Z,99689.00
2024-03-02T20:46:22.893Z,99684.69
2024-03-02T20:48:52.966Z,99686.63
2024-03-02T20:51:29.923Z,99685.13
2024-03-02T20:54:02.347Z,99686.72
2024-03-02T20:56:32.179Z,99681.25
2024-03-02T20:59:02.065Z,99678.94
2024-03-02T21:01:31.964Z,99674.28
2024-03-02T21:04:01.833Z,99668.75
2024-03-02T21:06:34.306Z,99669.91
2024-03-02T21:09:04.580Z,99670.22
2024-03-02T21:11:34.465Z,99674.03
2024-03-02T21:14:04.403Z,99673.97
2024-03-02T21:16:34.245Z,99673.13
2024-03-02T21:19:04.121Z,99677.72
2024-03-02T21:21:36.956Z,99680.03
2024-03-02T21:24:06.978Z,99674.84
2024-03-02T21:26:42.677Z,99690.81
2024-03-02T21:29:12.936Z,99691.53
2024-03-02T21:31:44.989Z,99693.81
2024-03-02T21:34:15.010Z,99695.25
2024-03-02T21:36:47.466Z,99690.44
2024-03-02T21:39:17.522Z,99683.38
2024-03-02T21:41:48.623Z,99688.75
2024-03-02T21:44:18.451Z,99694.13
2024-03-02T21:46:49.185Z,99694.41
2024-03-02T21:49:19.272Z,99696.72
2024-03-02T21:51:52.107Z,99696.28
2024-03-02T21:54:21.948Z,99692.69
2024-03-02T21:56:52.653Z,99686.81
2024-03-02T21:59:22.513Z,99690.69
2024-03-02T22:01:52.783Z,99689.09
2024-03-02T22:04:22.939Z,99692.56
2024-03-02T22:06:55.520Z,99687.47
2024-03-02T22:09:25.446Z,99685.53
2024-03-02T22:11:55.346Z,99692.81
2024-03-02T22:14:25.215Z,99690.56
2024-03-02T22:16:55.032Z,99691.34
2024-03-02T22:19:24.933Z,99690.09
2024-03-02T22:21:57.381Z,99685.81
2024-03-02T22:24:27.602Z,99688.09
2024-03-02T22:26:57.427Z,99686.53
2024-03-02T22:29:27.302Z,99690.31
2024-03-02T22:31:57.147Z,99694.19
2024-03-02T22:34:27.016Z,99689.53
2024-03-02T22:36:59.517Z,99691.84
2024-03-02T22:39:29.567Z,99692.16
2024-03-02T22:41:59.383Z,99690.59
2024-03-02T22:44:29.240Z,99690.94
2024-03-02T22:46:59.080Z,99690.88
2024-03-02T22:49:28.922Z,99688.47
2024-03-02T22:52:01.367Z,99703.25
2024-03-02T22:54:31.256Z,99706.69
2024-03-02T22:57:02.322Z,99701.66
2024-03-02T22:59:32.729Z,99702.03
2024-03-02T23:02:02.701Z,99707.03
2024-03-02T23:04:32.581Z,99700.34
2024-03-02T23:07:05.115Z,99701.50
2024-03-02T23:09:35.915Z,99707.69
2024-03-02T23:12:05.883Z,99706.78
2024-03-02T23:14:35.761Z,99713.75
2024-03-02T23:17:06.016Z,99716.84
2024-03-02T23:19:35.913Z,99710.50
2024-03-02T23:22:09.943Z,99714.38
2024-03-02T23:24:39.866Z,99717.78
2024-03-02T23:27:09.675Z,99715.78
2024-03-02T23:29:41.441Z,99717.28
2024-03-02T23:32:12.824Z,99712.09
2024-03-02T23:34:42.685Z,99711.16
2024-03-02T23:37:15.291Z,99717.28
2024-03-02T23:40:19.273Z,99704.50
2024-03-02T23:42:49.289Z,99698.69
2024-03-02T23:45:19.312Z,99701.06
2024-03-02T23:47:49.589Z,99699.13
2024-03-02T23:50:19.499Z,99690.97
2024-03-02T23:52:51.961Z,99692.88
2024-03-02T23:55:22.933Z,99684.72
2024-03-02T23:57:54.163Z,99681.22
